Terminal Aerodrome Forecast
Issued by NWS Sioux Falls, SD

Home | Current Version | Previous Version | Text Only | Print | Product List | Glossary Off
Versions: 1 2 3 4 5 6 7 8 9 10 11 12 13 14 15

000
FTUS43 KFSD 252320
TAFHON
TAF
KHON 252320Z 2600/2624 05011KT P6SM TSRA BKN090CB
      TEMPO 2600/2604 3SM +TSRA BKN035CB
     FM260400 05006KT P6SM TSRA OVC090CB
      TEMPO 2604/2606 3SM +TSRA OVC035CB
     FM260600 02005KT P6SM -SHRA VCTS OVC090CB
     FM261000 02005KT P6SM VCTS OVC070CB
     FM261500 02010KT P6SM BKN070=

USA.gov is the U.S. government's official web portal to all federal, state and local government web resources and services.